sensor_id;sensor_type;location;lat;lon;timestamp;temperature;humidity
70851;DHT22;58475;49.662;9.636;2024-02-26T00:00:07;3.18;92.97
70851;DHT22;58475;49.662;9.636;2024-02-26T00:02:38;3.24;92.83
70851;DHT22;58475;49.662;9.636;2024-02-26T00:05:05;3.19;92.93
70851;DHT22;58475;49.662;9.636;2024-02-26T00:07:31;3.19;92.99
70851;DHT22;58475;49.662;9.636;2024-02-26T00:09:56;3.09;93.35
70851;DHT22;58475;49.662;9.636;2024-02-26T00:12:22;3.19;93.30
70851;DHT22;58475;49.662;9.636;2024-02-26T00:14:47;3.19;93.20
70851;DHT22;58475;49.662;9.636;2024-02-26T00:17:14;3.21;93.10
70851;DHT22;58475;49.662;9.636;2024-02-26T00:19:40;3.36;92.67
70851;DHT22;58475;49.662;9.636;2024-02-26T00:22:05;3.40;92.52
70851;DHT22;58475;49.662;9.636;2024-02-26T00:24:30;3.33;92.71
70851;DHT22;58475;49.662;9.636;2024-02-26T00:26:56;3.31;92.78
70851;DHT22;58475;49.662;9.636;2024-02-26T00:29:21;3.40;92.66
70851;DHT22;58475;49.662;9.636;2024-02-26T00:31:47;3.33;92.80
70851;DHT22;58475;49.662;9.636;2024-02-26T00:34:12;3.40;92.90
70851;DHT22;58475;49.662;9.636;2024-02-26T00:36:37;3.42;92.85
70851;DHT22;58475;49.662;9.636;2024-02-26T00:39:03;3.35;93.21
70851;DHT22;58475;49.662;9.636;2024-02-26T00:41:29;3.32;93.40
70851;DHT22;58475;49.662;9.636;2024-02-26T00:43:54;3.38;93.31
70851;DHT22;58475;49.662;9.636;2024-02-26T00:46:19;3.26;93.49
70851;DHT22;58475;49.662;9.636;2024-02-26T00:48:45;3.16;93.65
70851;DHT22;58475;49.662;9.636;2024-02-26T00:51:10;3.29;93.56
70851;DHT22;58475;49.662;9.636;2024-02-26T00:53:35;3.29;93.35
70851;DHT22;58475;49.662;9.636;2024-02-26T00:56:01;3.25;93.72
70851;DHT22;58475;49.662;9.636;2024-02-26T00:58:27;3.32;93.61
70851;DHT22;58475;49.662;9.636;2024-02-26T01:00:52;3.42;93.39
70851;DHT22;58475;49.662;9.636;2024-02-26T01:03:18;3.39;93.42
70851;DHT22;58475;49.662;9.636;2024-02-26T01:05:44;3.46;93.20
70851;DHT22;58475;49.662;9.636;2024-02-26T01:08:10;3.43;93.43
70851;DHT22;58475;49.662;9.636;2024-02-26T01:10:35;3.33;93.63
70851;DHT22;58475;49.662;9.636;2024-02-26T01:13:01;3.45;93.58
70851;DHT22;58475;49.662;9.636;2024-02-26T01:15:26;3.51;93.31
70851;DHT22;58475;49.662;9.636;2024-02-26T01:17:52;3.48;93.16
70851;DHT22;58475;49.662;9.636;2024-02-26T01:20:17;3.48;93.27
70851;DHT22;58475;49.662;9.636;2024-02-26T01:22:43;3.51;93.37
70851;DHT22;58475;49.662;9.636;2024-02-26T01:25:09;3.48;93.54
70851;DHT22;58475;49.662;9.636;2024-02-26T01:27:35;3.40;93.66
70851;DHT22;58475;49.662;9.636;2024-02-26T01:30:02;3.51;93.71
70851;DHT22;58475;49.662;9.636;2024-02-26T01:32:29;3.52;93.64
70851;DHT22;58475;49.662;9.636;2024-02-26T01:34:54;3.67;93.59
70851;DHT22;58475;49.662;9.636;2024-02-26T01:37:20;3.72;93.16
70851;DHT22;58475;49.662;9.636;2024-02-26T01:39:45;3.72;93.21
70851;DHT22;58475;49.662;9.636;2024-02-26T01:42:10;3.80;93.13
70851;DHT22;58475;49.662;9.636;2024-02-26T01:44:36;3.89;93.08
70851;DHT22;58475;49.662;9.636;2024-02-26T01:47:04;3.93;92.90
70851;DHT22;58475;49.662;9.636;2024-02-26T01:49:29;3.83;93.00
70851;DHT22;58475;49.662;9.636;2024-02-26T01:51:55;3.82;93.03
70851;DHT22;58475;49.662;9.636;2024-02-26T01:54:21;3.82;92.97
70851;DHT22;58475;49.662;9.636;2024-02-26T01:56:47;3.69;93.36
70851;DHT22;58475;49.662;9.636;2024-02-26T01:59:12;3.76;93.22
70851;DHT22;58475;49.662;9.636;2024-02-26T02:01:39;3.76;93.31
70851;DHT22;58475;49.662;9.636;2024-02-26T02:04:07;3.82;93.15
70851;DHT22;58475;49.662;9.636;2024-02-26T02:06:33;3.87;93.01
70851;DHT22;58475;49.662;9.636;2024-02-26T02:08:58;3.91;92.77
70851;DHT22;58475;49.662;9.636;2024-02-26T02:11:25;3.87;92.93
70851;DHT22;58475;49.662;9.636;2024-02-26T02:13:51;3.86;93.09
70851;DHT22;58475;49.662;9.636;2024-02-26T02:16:16;3.80;93.19
70851;DHT22;58475;49.662;9.636;2024-02-26T02:18:42;3.80;93.07
70851;DHT22;58475;49.662;9.636;2024-02-26T02:21:07;3.84;93.16
70851;DHT22;58475;49.662;9.636;2024-02-26T02:23:32;3.86;93.04
70851;DHT22;58475;49.662;9.636;2024-02-26T02:25:58;3.83;93.18
70851;DHT22;58475;49.662;9.636;2024-02-26T02:28:25;3.82;93.42
70851;DHT22;58475;49.662;9.636;2024-02-26T02:30:51;3.90;93.19
70851;DHT22;58475;49.662;9.636;2024-02-26T02:33:16;3.98;92.94
70851;DHT22;58475;49.662;9.636;2024-02-26T02:35:42;3.95;92.85
70851;DHT22;58475;49.662;9.636;2024-02-26T02:38:07;3.95;92.89
70851;DHT22;58475;49.662;9.636;2024-02-26T02:40:33;3.87;93.35
70851;DHT22;58475;49.662;9.636;2024-02-26T02:42:58;3.95;93.12
70851;DHT22;58475;49.662;9.636;2024-02-26T02:45:25;4.10;92.71
70851;DHT22;58475;49.662;9.636;2024-02-26T02:47:50;4.04;92.51
70851;DHT22;58475;49.662;9.636;2024-02-26T02:50:16;4.01;92.56
70851;DHT22;58475;49.662;9.636;2024-02-26T02:52:41;3.95;92.68
70851;DHT22;58475;49.662;9.636;2024-02-26T02:55:06;3.91;93.09
70851;DHT22;58475;49.662;9.636;2024-02-26T02:57:32;3.91;93.16
70851;DHT22;58475;49.662;9.636;2024-02-26T02:59:58;3.90;92.93
70851;DHT22;58475;49.662;9.636;2024-02-26T03:02:23;3.94;92.74
70851;DHT22;58475;49.662;9.636;2024-02-26T03:04:50;4.03;92.73
70851;DHT22;58475;49.662;9.636;2024-02-26T03:07:15;4.11;92.47
70851;DHT22;58475;49.662;9.636;2024-02-26T03:09:41;4.10;92.31
70851;DHT22;58475;49.662;9.636;2024-02-26T03:12:06;4.01;92.59
70851;DHT22;58475;49.662;9.636;2024-02-26T03:14:31;4.08;92.41
70851;DHT22;58475;49.662;9.636;2024-02-26T03:16:57;4.14;92.16
70851;DHT22;58475;49.662;9.636;2024-02-26T03:19:22;4.10;92.33
70851;DHT22;58475;49.662;9.636;2024-02-26T03:21:47;4.01;92.67
70851;DHT22;58475;49.662;9.636;2024-02-26T03:24:13;3.97;93.01
70851;DHT22;58475;49.662;9.636;2024-02-26T03:26:38;4.05;92.45
70851;DHT22;58475;49.662;9.636;2024-02-26T03:29:04;3.89;92.70
70851;DHT22;58475;49.662;9.636;2024-02-26T03:31:30;3.86;92.86
70851;DHT22;58475;49.662;9.636;2024-02-26T03:33:55;3.90;92.84
70851;DHT22;58475;49.662;9.636;2024-02-26T03:36:21;3.82;92.89
70851;DHT22;58475;49.662;9.636;2024-02-26T03:38:49;3.80;92.96
70851;DHT22;58475;49.662;9.636;2024-02-26T03:41:14;3.74;93.14
70851;DHT22;58475;49.662;9.636;2024-02-26T03:43:40;3.80;92.92
70851;DHT22;58475;49.662;9.636;2024-02-26T03:46:08;3.74;92.84
70851;DHT22;58475;49.662;9.636;2024-02-26T03:48:36;3.67;93.40
70851;DHT22;58475;49.662;9.636;2024-02-26T03:51:02;3.67;93.34
70851;DHT22;58475;49.662;9.636;2024-02-26T03:53:27;3.63;93.58
70851;DHT22;58475;49.662;9.636;2024-02-26T03:55:53;3.56;93.93
70851;DHT22;58475;49.662;9.636;2024-02-26T03:58:20;3.56;93.99
70851;DHT22;58475;49.662;9.636;2024-02-26T04:00:46;3.58;94.01
70851;DHT22;58475;49.662;9.636;2024-02-26T04:03:13;3.59;93.92
70851;DHT22;58475;49.662;9.636;2024-02-26T04:05:38;3.60;93.98
70851;DHT22;58475;49.662;9.636;2024-02-26T04:08:04;3.67;93.81
70851;DHT22;58475;49.662;9.636;2024-02-26T04:10:32;3.74;93.36
70851;DHT22;58475;49.662;9.636;2024-02-26T04:12:57;3.73;93.49
70851;DHT22;58475;49.662;9.636;2024-02-26T04:15:23;3.70;93.56
70851;DHT22;58475;49.662;9.636;2024-02-26T04:17:48;3.70;93.51
70851;DHT22;58475;49.662;9.636;2024-02-26T04:20:14;3.74;93.52
70851;DHT22;58475;49.662;9.636;2024-02-26T04:22:41;3.82;93.45
70851;DHT22;58475;49.662;9.636;2024-02-26T04:25:06;3.82;93.28
70851;DHT22;58475;49.662;9.636;2024-02-26T04:27:32;3.72;93.61
70851;DHT22;58475;49.662;9.636;2024-02-26T04:29:57;3.56;94.45
70851;DHT22;58475;49.662;9.636;2024-02-26T04:32:22;3.62;94.43
70851;DHT22;58475;49.662;9.636;2024-02-26T04:34:48;3.66;94.02
70851;DHT22;58475;49.662;9.636;2024-02-26T04:37:13;3.72;93.89
70851;DHT22;58475;49.662;9.636;2024-02-26T04:39:41;3.73;93.79
70851;DHT22;58475;49.662;9.636;2024-02-26T04:42:06;3.73;93.66
70851;DHT22;58475;49.662;9.636;2024-02-26T04:44:32;3.82;93.53
70851;DHT22;58475;49.662;9.636;2024-02-26T04:46:58;3.83;93.47
70851;DHT22;58475;49.662;9.636;2024-02-26T04:49:23;3.87;93.39
70851;DHT22;58475;49.662;9.636;2024-02-26T04:51:48;3.77;94.06
70851;DHT22;58475;49.662;9.636;2024-02-26T04:54:14;3.84;93.67
70851;DHT22;58475;49.662;9.636;2024-02-26T04:56:39;3.86;93.56
70851;DHT22;58475;49.662;9.636;2024-02-26T04:59:05;3.91;93.39
70851;DHT22;58475;49.662;9.636;2024-02-26T05:01:30;3.83;93.60
70851;DHT22;58475;49.662;9.636;2024-02-26T05:03:55;3.79;93.78
70851;DHT22;58475;49.662;9.636;2024-02-26T05:06:21;3.84;93.75
70851;DHT22;58475;49.662;9.636;2024-02-26T05:08:46;3.84;93.44
70851;DHT22;58475;49.662;9.636;2024-02-26T05:11:11;3.82;93.82
70851;DHT22;58475;49.662;9.636;2024-02-26T05:13:36;3.80;93.62
70851;DHT22;58475;49.662;9.636;2024-02-26T05:16:02;3.83;93.72
70851;DHT22;58475;49.662;9.636;2024-02-26T05:18:28;3.89;93.51
70851;DHT22;58475;49.662;9.636;2024-02-26T05:20:53;3.90;93.40
70851;DHT22;58475;49.662;9.636;2024-02-26T05:23:18;3.95;93.22
70851;DHT22;58475;49.662;9.636;2024-02-26T05:25:43;3.93;93.26
70851;DHT22;58475;49.662;9.636;2024-02-26T05:28:12;3.94;93.28
70851;DHT22;58475;49.662;9.636;2024-02-26T05:30:37;3.93;93.31
70851;DHT22;58475;49.662;9.636;2024-02-26T05:33:05;3.94;93.45
70851;DHT22;58475;49.662;9.636;2024-02-26T05:35:30;3.93;93.38
70851;DHT22;58475;49.662;9.636;2024-02-26T05:37:55;3.93;93.58
70851;DHT22;58475;49.662;9.636;2024-02-26T05:40:21;3.95;93.56
70851;DHT22;58475;49.662;9.636;2024-02-26T05:42:46;4.04;93.23
70851;DHT22;58475;49.662;9.636;2024-02-26T05:45:11;3.95;93.42
70851;DHT22;58475;49.662;9.636;2024-02-26T05:47:37;3.98;93.60
70851;DHT22;58475;49.662;9.636;2024-02-26T05:50:11;3.93;93.78
70851;DHT22;58475;49.662;9.636;2024-02-26T05:52:37;4.01;93.31
70851;DHT22;58475;49.662;9.636;2024-02-26T05:55:04;4.07;93.21
70851;DHT22;58475;49.662;9.636;2024-02-26T05:57:30;3.98;93.48
70851;DHT22;58475;49.662;9.636;2024-02-26T05:59:56;3.98;93.76
70851;DHT22;58475;49.662;9.636;2024-02-26T06:02:21;4.01;93.78
70851;DHT22;58475;49.662;9.636;2024-02-26T06:04:46;4.03;93.83
70851;DHT22;58475;49.662;9.636;2024-02-26T06:07:12;4.07;93.69
70851;DHT22;58475;49.662;9.636;2024-02-26T06:09:37;3.94;93.84
70851;DHT22;58475;49.662;9.636;2024-02-26T06:12:03;3.87;94.34
70851;DHT22;58475;49.662;9.636;2024-02-26T06:14:28;3.90;94.29
70851;DHT22;58475;49.662;9.636;2024-02-26T06:16:53;3.93;94.20
70851;DHT22;58475;49.662;9.636;2024-02-26T06:19:19;4.05;93.81
70851;DHT22;58475;49.662;9.636;2024-02-26T06:21:44;4.13;93.59
70851;DHT22;58475;49.662;9.636;2024-02-26T06:24:09;4.14;93.64
70851;DHT22;58475;49.662;9.636;2024-02-26T06:26:35;4.13;94.06
70851;DHT22;58475;49.662;9.636;2024-02-26T06:29:00;4.11;94.01
70851;DHT22;58475;49.662;9.636;2024-02-26T06:31:25;4.14;94.09
70851;DHT22;58475;49.662;9.636;2024-02-26T06:33:53;4.15;94.20
70851;DHT22;58475;49.662;9.636;2024-02-26T06:36:19;4.20;94.13
70851;DHT22;58475;49.662;9.636;2024-02-26T06:38:44;4.08;94.39
70851;DHT22;58475;49.662;9.636;2024-02-26T06:41:09;4.17;94.59
70851;DHT22;58475;49.662;9.636;2024-02-26T06:43:35;4.18;94.58
70851;DHT22;58475;49.662;9.636;2024-02-26T06:46:00;4.22;94.87
70851;DHT22;58475;49.662;9.636;2024-02-26T06:48:25;4.28;94.65
70851;DHT22;58475;49.662;9.636;2024-02-26T06:50:51;4.24;94.70
70851;DHT22;58475;49.662;9.636;2024-02-26T06:53:16;4.22;94.87
70851;DHT22;58475;49.662;9.636;2024-02-26T06:55:42;4.32;94.79
70851;DHT22;58475;49.662;9.636;2024-02-26T06:58:08;4.34;94.83
70851;DHT22;58475;49.662;9.636;2024-02-26T07:00:34;4.37;95.01
70851;DHT22;58475;49.662;9.636;2024-02-26T07:02:59;4.38;95.13
70851;DHT22;58475;49.662;9.636;2024-02-26T07:05:25;4.34;95.31
70851;DHT22;58475;49.662;9.636;2024-02-26T07:07:50;4.48;95.05
70851;DHT22;58475;49.662;9.636;2024-02-26T07:10:15;4.56;94.67
70851;DHT22;58475;49.662;9.636;2024-02-26T07:12:41;4.51;94.61
70851;DHT22;58475;49.662;9.636;2024-02-26T07:15:07;4.46;94.83
70851;DHT22;58475;49.662;9.636;2024-02-26T07:17:33;4.49;95.08
70851;DHT22;58475;49.662;9.636;2024-02-26T07:20:02;4.58;95.20
70851;DHT22;58475;49.662;9.636;2024-02-26T07:22:30;4.63;95.18
70851;DHT22;58475;49.662;9.636;2024-02-26T07:24:55;4.79;94.98
70851;DHT22;58475;49.662;9.636;2024-02-26T07:27:20;4.75;95.13
70851;DHT22;58475;49.662;9.636;2024-02-26T07:29:46;4.76;95.03
70851;DHT22;58475;49.662;9.636;2024-02-26T07:32:12;4.79;95.08
70851;DHT22;58475;49.662;9.636;2024-02-26T07:34:37;4.83;94.99
70851;DHT22;58475;49.662;9.636;2024-02-26T07:37:06;4.71;95.82
70851;DHT22;58475;49.662;9.636;2024-02-26T07:39:32;4.85;95.66
70851;DHT22;58475;49.662;9.636;2024-02-26T07:41:57;4.96;95.51
70851;DHT22;58475;49.662;9.636;2024-02-26T07:44:22;4.99;95.75
70851;DHT22;58475;49.662;9.636;2024-02-26T07:46:48;5.14;95.39
70851;DHT22;58475;49.662;9.636;2024-02-26T07:49:13;5.20;95.47
70851;DHT22;58475;49.662;9.636;2024-02-26T07:51:38;5.13;95.76
70851;DHT22;58475;49.662;9.636;2024-02-26T07:54:04;5.07;95.99
70851;DHT22;58475;49.662;9.636;2024-02-26T07:56:29;5.06;96.32
70851;DHT22;58475;49.662;9.636;2024-02-26T07:58:54;5.03;96.34
70851;DHT22;58475;49.662;9.636;2024-02-26T08:01:20;5.04;96.64
70851;DHT22;58475;49.662;9.636;2024-02-26T08:03:45;5.14;96.44
70851;DHT22;58475;49.662;9.636;2024-02-26T08:06:10;5.13;96.53
70851;DHT22;58475;49.662;9.636;2024-02-26T08:08:36;5.16;96.72
70851;DHT22;58475;49.662;9.636;2024-02-26T08:11:01;5.19;96.83
70851;DHT22;58475;49.662;9.636;2024-02-26T08:13:27;5.26;96.53
70851;DHT22;58475;49.662;9.636;2024-02-26T08:15:52;5.30;96.15
70851;DHT22;58475;49.662;9.636;2024-02-26T08:18:18;5.35;95.85
70851;DHT22;58475;49.662;9.636;2024-02-26T08:20:44;5.26;96.01
70851;DHT22;58475;49.662;9.636;2024-02-26T08:23:09;5.20;96.55
70851;DHT22;58475;49.662;9.636;2024-02-26T08:25:35;5.26;96.64
70851;DHT22;58475;49.662;9.636;2024-02-26T08:28:00;5.31;96.59
70851;DHT22;58475;49.662;9.636;2024-02-26T08:30:26;5.34;96.82
70851;DHT22;58475;49.662;9.636;2024-02-26T08:32:51;5.40;96.73
70851;DHT22;58475;49.662;9.636;2024-02-26T08:35:17;5.54;96.86
70851;DHT22;58475;49.662;9.636;2024-02-26T08:37:46;5.78;96.33
70851;DHT22;58475;49.662;9.636;2024-02-26T08:40:12;5.95;95.88
70851;DHT22;58475;49.662;9.636;2024-02-26T08:42:38;6.10;94.91
70851;DHT22;58475;49.662;9.636;2024-02-26T08:45:03;6.23;94.83
70851;DHT22;58475;49.662;9.636;2024-02-26T08:47:29;6.45;94.16
70851;DHT22;58475;49.662;9.636;2024-02-26T08:49:54;6.55;92.76
70851;DHT22;58475;49.662;9.636;2024-02-26T08:52:20;6.70;92.11
70851;DHT22;58475;49.662;9.636;2024-02-26T08:54:47;6.89;92.15
70851;DHT22;58475;49.662;9.636;2024-02-26T08:57:12;6.95;91.90
70851;DHT22;58475;49.662;9.636;2024-02-26T08:59:37;7.08;91.76
70851;DHT22;58475;49.662;9.636;2024-02-26T09:02:03;6.96;89.58
70851;DHT22;58475;49.662;9.636;2024-02-26T09:04:28;6.81;89.89
70851;DHT22;58475;49.662;9.636;2024-02-26T09:06:53;6.78;90.35
70851;DHT22;58475;49.662;9.636;2024-02-26T09:09:20;6.80;90.44
70851;DHT22;58475;49.662;9.636;2024-02-26T09:11:45;6.91;90.20
70851;DHT22;58475;49.662;9.636;2024-02-26T09:14:12;6.95;90.06
70851;DHT22;58475;49.662;9.636;2024-02-26T09:16:37;7.08;89.64
70851;DHT22;58475;49.662;9.636;2024-02-26T09:19:03;7.18;88.69
70851;DHT22;58475;49.662;9.636;2024-02-26T09:21:28;7.08;89.51
70851;DHT22;58475;49.662;9.636;2024-02-26T09:23:53;7.11;89.52
70851;DHT22;58475;49.662;9.636;2024-02-26T09:26:19;7.12;89.50
70851;DHT22;58475;49.662;9.636;2024-02-26T09:28:44;7.15;89.71
70851;DHT22;58475;49.662;9.636;2024-02-26T09:31:10;7.03;89.95
70851;DHT22;58475;49.662;9.636;2024-02-26T09:33:35;7.19;89.65
70851;DHT22;58475;49.662;9.636;2024-02-26T09:36:01;7.18;89.42
70851;DHT22;58475;49.662;9.636;2024-02-26T09:38:27;7.32;89.47
70851;DHT22;58475;49.662;9.636;2024-02-26T09:40:53;7.50;89.84
70851;DHT22;58475;49.662;9.636;2024-02-26T09:43:21;7.50;88.66
70851;DHT22;58475;49.662;9.636;2024-02-26T09:45:47;7.56;88.39
70851;DHT22;58475;49.662;9.636;2024-02-26T09:48:14;7.57;88.95
70851;DHT22;58475;49.662;9.636;2024-02-26T09:50:42;7.67;89.00
70851;DHT22;58475;49.662;9.636;2024-02-26T09:53:08;7.69;88.17
70851;DHT22;58475;49.662;9.636;2024-02-26T09:55:35;7.54;87.85
70851;DHT22;58475;49.662;9.636;2024-02-26T09:58:01;7.67;87.94
70851;DHT22;58475;49.662;9.636;2024-02-26T10:00:30;7.87;87.72
70851;DHT22;58475;49.662;9.636;2024-02-26T10:03:03;7.87;86.72
70851;DHT22;58475;49.662;9.636;2024-02-26T10:05:30;7.81;86.82
70851;DHT22;58475;49.662;9.636;2024-02-26T10:07:57;7.95;87.60
70851;DHT22;58475;49.662;9.636;2024-02-26T10:10:23;8.04;87.89
70851;DHT22;58475;49.662;9.636;2024-02-26T10:12:48;8.09;88.01
70851;DHT22;58475;49.662;9.636;2024-02-26T10:15:14;8.18;87.14
70851;DHT22;58475;49.662;9.636;2024-02-26T10:17:40;8.04;86.31
70851;DHT22;58475;49.662;9.636;2024-02-26T10:20:16;8.01;86.65
70851;DHT22;58475;49.662;9.636;2024-02-26T10:22:43;8.16;87.04
70851;DHT22;58475;49.662;9.636;2024-02-26T10:25:09;8.15;87.77
70851;DHT22;58475;49.662;9.636;2024-02-26T10:27:35;8.25;87.14
70851;DHT22;58475;49.662;9.636;2024-02-26T10:30:04;8.42;86.82
70851;DHT22;58475;49.662;9.636;2024-02-26T10:32:40;8.55;86.09
70851;DHT22;58475;49.662;9.636;2024-02-26T10:35:08;8.49;85.61
70851;DHT22;58475;49.662;9.636;2024-02-26T10:37:34;8.57;86.03
70851;DHT22;58475;49.662;9.636;2024-02-26T10:39:59;8.63;85.66
70851;DHT22;58475;49.662;9.636;2024-02-26T10:42:25;8.55;86.10
70851;DHT22;58475;49.662;9.636;2024-02-26T10:44:51;8.66;85.64
70851;DHT22;58475;49.662;9.636;2024-02-26T10:47:16;8.64;85.75
70851;DHT22;58475;49.662;9.636;2024-02-26T10:49:46;8.70;85.64
70851;DHT22;58475;49.662;9.636;2024-02-26T10:52:12;8.74;84.86
70851;DHT22;58475;49.662;9.636;2024-02-26T10:54:41;8.84;84.53
70851;DHT22;58475;49.662;9.636;2024-02-26T10:57:08;8.99;85.57
70851;DHT22;58475;49.662;9.636;2024-02-26T10:59:34;9.08;84.73
70851;DHT22;58475;49.662;9.636;2024-02-26T11:02:00;9.23;83.63
70851;DHT22;58475;49.662;9.636;2024-02-26T11:04:26;9.25;82.29
70851;DHT22;58475;49.662;9.636;2024-02-26T11:06:54;9.36;82.34
70851;DHT22;58475;49.662;9.636;2024-02-26T11:09:22;9.69;82.69
70851;DHT22;58475;49.662;9.636;2024-02-26T11:11:48;9.92;81.32
70851;DHT22;58475;49.662;9.636;2024-02-26T11:14:15;10.07;81.80
70851;DHT22;58475;49.662;9.636;2024-02-26T11:16:41;10.27;81.22
70851;DHT22;58475;49.662;9.636;2024-02-26T11:19:08;10.40;79.57
70851;DHT22;58475;49.662;9.636;2024-02-26T11:21:35;10.48;79.80
70851;DHT22;58475;49.662;9.636;2024-02-26T11:24:11;10.54;78.72
70851;DHT22;58475;49.662;9.636;2024-02-26T11:26:49;10.52;78.27
70851;DHT22;58475;49.662;9.636;2024-02-26T11:29:18;10.60;78.23
70851;DHT22;58475;49.662;9.636;2024-02-26T11:31:44;10.68;77.46
70851;DHT22;58475;49.662;9.636;2024-02-26T11:34:10;10.23;78.23
70851;DHT22;58475;49.662;9.636;2024-02-26T11:36:36;10.71;78.74
70851;DHT22;58475;49.662;9.636;2024-02-26T11:39:04;11.05;75.64
70851;DHT22;58475;49.662;9.636;2024-02-26T11:41:29;11.24;77.85
70851;DHT22;58475;49.662;9.636;2024-02-26T11:46:27;11.29;76.98
70851;DHT22;58475;49.662;9.636;2024-02-26T11:49:01;11.32;75.71
70851;DHT22;58475;49.662;9.636;2024-02-26T11:51:28;11.15;76.53
70851;DHT22;58475;49.662;9.636;2024-02-26T11:53:57;11.19;76.54
70851;DHT22;58475;49.662;9.636;2024-02-26T11:56:24;11.15;77.33
70851;DHT22;58475;49.662;9.636;2024-02-26T11:59:11;11.06;77.63
70851;DHT22;58475;49.662;9.636;2024-02-26T12:01:48;11.11;77.20
70851;DHT22;58475;49.662;9.636;2024-02-26T12:04:17;11.23;76.58
70851;DHT22;58475;49.662;9.636;2024-02-26T12:06:50;11.44;76.06
70851;DHT22;58475;49.662;9.636;2024-02-26T12:09:36;11.54;76.56
70851;DHT22;58475;49.662;9.636;2024-02-26T12:12:03;11.61;75.95
70851;DHT22;58475;49.662;9.636;2024-02-26T12:14:29;11.81;75.90
70851;DHT22;58475;49.662;9.636;2024-02-26T12:16:55;11.82;74.39
70851;DHT22;58475;49.662;9.636;2024-02-26T12:19:21;11.80;74.94
70851;DHT22;58475;49.662;9.636;2024-02-26T12:21:51;11.82;75.31
70851;DHT22;58475;49.662;9.636;2024-02-26T12:24:18;11.77;75.69
70851;DHT22;58475;49.662;9.636;2024-02-26T12:26:43;11.73;74.88
70851;DHT22;58475;49.662;9.636;2024-02-26T12:29:10;11.69;75.35
70851;DHT22;58475;49.662;9.636;2024-02-26T12:31:36;11.74;75.50
70851;DHT22;58475;49.662;9.636;2024-02-26T12:34:03;11.56;76.84
70851;DHT22;58475;49.662;9.636;2024-02-26T12:36:29;11.57;76.35
70851;DHT22;58475;49.662;9.636;2024-02-26T12:38:55;11.69;76.54
70851;DHT22;58475;49.662;9.636;2024-02-26T12:41:21;11.66;76.48
70851;DHT22;58475;49.662;9.636;2024-02-26T12:43:47;11.70;76.22
70851;DHT22;58475;49.662;9.636;2024-02-26T12:46:12;11.50;75.99
70851;DHT22;58475;49.662;9.636;2024-02-26T12:48:42;11.43;76.69
70851;DHT22;58475;49.662;9.636;2024-02-26T12:51:08;11.63;76.00
70851;DHT22;58475;49.662;9.636;2024-02-26T12:53:35;12.01;77.22
70851;DHT22;58475;49.662;9.636;2024-02-26T12:56:00;12.40;74.39
70851;DHT22;58475;49.662;9.636;2024-02-26T12:58:26;12.69;73.33
70851;DHT22;58475;49.662;9.636;2024-02-26T13:00:54;12.86;72.36
70851;DHT22;58475;49.662;9.636;2024-02-26T13:03:20;13.03;70.67
70851;DHT22;58475;49.662;9.636;2024-02-26T13:05:46;13.15;69.75
70851;DHT22;58475;49.662;9.636;2024-02-26T13:08:19;13.58;70.15
70851;DHT22;58475;49.662;9.636;2024-02-26T13:10:48;13.57;69.93
70851;DHT22;58475;49.662;9.636;2024-02-26T13:13:17;13.99;69.14
70851;DHT22;58475;49.662;9.636;2024-02-26T13:15:46;14.36;69.33
70851;DHT22;58475;49.662;9.636;2024-02-26T13:18:15;14.21;66.76
70851;DHT22;58475;49.662;9.636;2024-02-26T13:20:41;14.02;65.92
70851;DHT22;58475;49.662;9.636;2024-02-26T13:23:08;13.61;66.42
70851;DHT22;58475;49.662;9.636;2024-02-26T13:25:35;13.49;67.65
70851;DHT22;58475;49.662;9.636;2024-02-26T13:28:14;13.25;68.19
70851;DHT22;58475;49.662;9.636;2024-02-26T13:33:18;13.17;67.66
70851;DHT22;58475;49.662;9.636;2024-02-26T13:35:44;13.28;67.95
70851;DHT22;58475;49.662;9.636;2024-02-26T13:38:10;13.49;68.34
70851;DHT22;58475;49.662;9.636;2024-02-26T13:40:36;13.80;68.11
70851;DHT22;58475;49.662;9.636;2024-02-26T13:43:01;14.03;68.25
70851;DHT22;58475;49.662;9.636;2024-02-26T13:45:27;14.13;66.77
70851;DHT22;58475;49.662;9.636;2024-02-26T13:48:05;14.03;66.03
70851;DHT22;58475;49.662;9.636;2024-02-26T13:50:31;14.26;66.42
70851;DHT22;58475;49.662;9.636;2024-02-26T13:52:56;14.27;66.53
70851;DHT22;58475;49.662;9.636;2024-02-26T13:55:25;14.20;65.87
70851;DHT22;58475;49.662;9.636;2024-02-26T13:57:55;14.23;65.77
70851;DHT22;58475;49.662;9.636;2024-02-26T14:00:22;14.30;65.03
70851;DHT22;58475;49.662;9.636;2024-02-26T14:02:47;14.33;64.34
70851;DHT22;58475;49.662;9.636;2024-02-26T14:05:12;13.98;63.81
70851;DHT22;58475;49.662;9.636;2024-02-26T14:07:39;13.68;66.06
70851;DHT22;58475;49.662;9.636;2024-02-26T14:10:05;13.59;66.40
70851;DHT22;58475;49.662;9.636;2024-02-26T14:12:30;13.51;67.37
70851;DHT22;58475;49.662;9.636;2024-02-26T14:14:55;13.49;67.02
70851;DHT22;58475;49.662;9.636;2024-02-26T14:17:21;13.48;67.29
70851;DHT22;58475;49.662;9.636;2024-02-26T14:19:47;13.39;67.78
70851;DHT22;58475;49.662;9.636;2024-02-26T14:22:14;13.42;67.44
70851;DHT22;58475;49.662;9.636;2024-02-26T14:24:41;13.61;66.74
70851;DHT22;58475;49.662;9.636;2024-02-26T14:27:12;14.05;66.58
70851;DHT22;58475;49.662;9.636;2024-02-26T14:29:44;14.30;63.23
70851;DHT22;58475;49.662;9.636;2024-02-26T14:32:09;14.52;64.16
70851;DHT22;58475;49.662;9.636;2024-02-26T14:34:35;14.79;64.67
70851;DHT22;58475;49.662;9.636;2024-02-26T14:37:01;15.03;63.93
70851;DHT22;58475;49.662;9.636;2024-02-26T14:39:26;15.02;62.85
70851;DHT22;58475;49.662;9.636;2024-02-26T14:41:51;14.48;62.99
70851;DHT22;58475;49.662;9.636;2024-02-26T14:44:17;14.42;64.12
70851;DHT22;58475;49.662;9.636;2024-02-26T14:46:42;14.21;63.59
70851;DHT22;58475;49.662;9.636;2024-02-26T14:49:07;14.13;64.97
70851;DHT22;58475;49.662;9.636;2024-02-26T14:51:33;14.05;65.58
70851;DHT22;58475;49.662;9.636;2024-02-26T14:53:58;14.05;63.20
70851;DHT22;58475;49.662;9.636;2024-02-26T14:56:25;14.16;63.80
70851;DHT22;58475;49.662;9.636;2024-02-26T14:58:51;14.38;62.78
70851;DHT22;58475;49.662;9.636;2024-02-26T15:01:16;14.51;63.80
70851;DHT22;58475;49.662;9.636;2024-02-26T15:03:41;14.47;62.14
70851;DHT22;58475;49.662;9.636;2024-02-26T15:06:07;14.57;63.75
70851;DHT22;58475;49.662;9.636;2024-02-26T15:08:32;14.56;63.48
70851;DHT22;58475;49.662;9.636;2024-02-26T15:10:58;14.42;62.99
70851;DHT22;58475;49.662;9.636;2024-02-26T15:13:23;14.26;63.03
70851;DHT22;58475;49.662;9.636;2024-02-26T15:15:48;14.23;62.84
70851;DHT22;58475;49.662;9.636;2024-02-26T15:18:14;14.19;62.18
70851;DHT22;58475;49.662;9.636;2024-02-26T15:20:42;14.17;63.81
70851;DHT22;58475;49.662;9.636;2024-02-26T15:23:08;14.31;63.05
70851;DHT22;58475;49.662;9.636;2024-02-26T15:25:34;14.38;64.45
70851;DHT22;58475;49.662;9.636;2024-02-26T15:27:59;14.37;63.15
70851;DHT22;58475;49.662;9.636;2024-02-26T15:30:25;14.51;63.87
70851;DHT22;58475;49.662;9.636;2024-02-26T15:32:52;14.30;63.06
70851;DHT22;58475;49.662;9.636;2024-02-26T15:35:17;14.10;63.88
70851;DHT22;58475;49.662;9.636;2024-02-26T15:37:43;13.92;65.34
70851;DHT22;58475;49.662;9.636;2024-02-26T15:40:09;13.75;66.00